sensor_id;sensor_type;location;lat;lon;timestamp;P1;durP1;ratioP1;P2;durP2;ratioP2
6828;SDS011;17930;48.592;8.868;2023-06-26T00:00:45;7.70;;;5.80;;
6828;SDS011;17930;48.592;8.868;2023-06-26T00:03:12;6.90;;;5.30;;
6828;SDS011;17930;48.592;8.868;2023-06-26T00:05:40;8.87;;;6.50;;
6828;SDS011;17930;48.592;8.868;2023-06-26T00:08:07;8.97;;;6.40;;
6828;SDS011;17930;48.592;8.868;2023-06-26T00:10:34;8.23;;;5.63;;
6828;SDS011;17930;48.592;8.868;2023-06-26T00:13:01;9.83;;;6.23;;
6828;SDS011;17930;48.592;8.868;2023-06-26T00:15:30;8.33;;;5.60;;
6828;SDS011;17930;48.592;8.868;2023-06-26T00:17:56;10.40;;;6.07;;
6828;SDS011;17930;48.592;8.868;2023-06-26T00:20:23;8.40;;;6.13;;
6828;SDS011;17930;48.592;8.868;2023-06-26T00:22:51;7.10;;;5.70;;
6828;SDS011;17930;48.592;8.868;2023-06-26T00:25:19;7.40;;;5.40;;
6828;SDS011;17930;48.592;8.868;2023-06-26T00:27:46;9.03;;;5.70;;
6828;SDS011;17930;48.592;8.868;2023-06-26T00:30:12;9.20;;;6.43;;
6828;SDS011;17930;48.592;8.868;2023-06-26T00:32:40;7.57;;;5.60;;
6828;SDS011;17930;48.592;8.868;2023-06-26T00:35:07;8.77;;;5.97;;
6828;SDS011;17930;48.592;8.868;2023-06-26T00:37:34;9.10;;;6.20;;
6828;SDS011;17930;48.592;8.868;2023-06-26T00:40:00;8.00;;;5.83;;
6828;SDS011;17930;48.592;8.868;2023-06-26T00:42:27;8.23;;;5.70;;
6828;SDS011;17930;48.592;8.868;2023-06-26T00:44:54;7.07;;;5.67;;
6828;SDS011;17930;48.592;8.868;2023-06-26T00:47:20;7.10;;;5.87;;
6828;SDS011;17930;48.592;8.868;2023-06-26T00:49:48;9.13;;;6.50;;
6828;SDS011;17930;48.592;8.868;2023-06-26T00:52:15;9.00;;;6.50;;
6828;SDS011;17930;48.592;8.868;2023-06-26T00:54:42;7.60;;;6.43;;
6828;SDS011;17930;48.592;8.868;2023-06-26T00:57:09;7.20;;;5.60;;
6828;SDS011;17930;48.592;8.868;2023-06-26T00:59:36;8.53;;;6.23;;
6828;SDS011;17930;48.592;8.868;2023-06-26T01:02:03;7.10;;;5.90;;
6828;SDS011;17930;48.592;8.868;2023-06-26T01:04:31;8.47;;;6.40;;
6828;SDS011;17930;48.592;8.868;2023-06-26T01:06:59;10.80;;;6.53;;
6828;SDS011;17930;48.592;8.868;2023-06-26T01:09:33;8.67;;;6.33;;
6828;SDS011;17930;48.592;8.868;2023-06-26T01:12:00;9.00;;;6.47;;
6828;SDS011;17930;48.592;8.868;2023-06-26T01:14:28;8.70;;;5.90;;
6828;SDS011;17930;48.592;8.868;2023-06-26T01:16:54;7.60;;;5.87;;
6828;SDS011;17930;48.592;8.868;2023-06-26T01:19:23;7.53;;;5.83;;
6828;SDS011;17930;48.592;8.868;2023-06-26T01:21:55;8.90;;;6.60;;
6828;SDS011;17930;48.592;8.868;2023-06-26T01:24:32;8.33;;;6.00;;
6828;SDS011;17930;48.592;8.868;2023-06-26T01:27:03;10.37;;;6.00;;
6828;SDS011;17930;48.592;8.868;2023-06-26T01:29:32;6.30;;;5.30;;
6828;SDS011;17930;48.592;8.868;2023-06-26T01:31:59;7.73;;;6.17;;
6828;SDS011;17930;48.592;8.868;2023-06-26T01:34:27;8.83;;;5.63;;
6828;SDS011;17930;48.592;8.868;2023-06-26T01:36:54;9.87;;;6.10;;
6828;SDS011;17930;48.592;8.868;2023-06-26T01:39:20;8.17;;;6.00;;
6828;SDS011;17930;48.592;8.868;2023-06-26T01:41:47;7.47;;;5.63;;
6828;SDS011;17930;48.592;8.868;2023-06-26T01:44:17;8.27;;;6.07;;
6828;SDS011;17930;48.592;8.868;2023-06-26T01:46:54;7.40;;;5.83;;
6828;SDS011;17930;48.592;8.868;2023-06-26T01:49:29;8.87;;;6.03;;
6828;SDS011;17930;48.592;8.868;2023-06-26T01:52:03;7.67;;;6.10;;
6828;SDS011;17930;48.592;8.868;2023-06-26T01:54:37;8.17;;;6.10;;
6828;SDS011;17930;48.592;8.868;2023-06-26T01:57:08;8.23;;;6.40;;
6828;SDS011;17930;48.592;8.868;2023-06-26T01:59:37;8.37;;;6.40;;
6828;SDS011;17930;48.592;8.868;2023-06-26T02:02:06;7.97;;;6.30;;
6828;SDS011;17930;48.592;8.868;2023-06-26T02:04:33;9.27;;;6.77;;
6828;SDS011;17930;48.592;8.868;2023-06-26T02:07:00;9.37;;;6.73;;
6828;SDS011;17930;48.592;8.868;2023-06-26T02:09:26;8.70;;;6.37;;
6828;SDS011;17930;48.592;8.868;2023-06-26T02:11:53;9.20;;;6.50;;
6828;SDS011;17930;48.592;8.868;2023-06-26T02:14:20;10.07;;;6.37;;
6828;SDS011;17930;48.592;8.868;2023-06-26T02:16:48;10.27;;;6.80;;
6828;SDS011;17930;48.592;8.868;2023-06-26T02:19:14;7.93;;;6.03;;
6828;SDS011;17930;48.592;8.868;2023-06-26T02:21:46;12.03;;;7.00;;
6828;SDS011;17930;48.592;8.868;2023-06-26T02:24:14;7.77;;;5.70;;
6828;SDS011;17930;48.592;8.868;2023-06-26T02:26:40;8.50;;;6.27;;
6828;SDS011;17930;48.592;8.868;2023-06-26T02:29:07;9.10;;;6.27;;
6828;SDS011;17930;48.592;8.868;2023-06-26T02:31:34;8.77;;;6.33;;
6828;SDS011;17930;48.592;8.868;2023-06-26T02:34:02;9.10;;;6.43;;
6828;SDS011;17930;48.592;8.868;2023-06-26T02:36:28;8.83;;;6.83;;
6828;SDS011;17930;48.592;8.868;2023-06-26T02:38:55;9.47;;;6.53;;
6828;SDS011;17930;48.592;8.868;2023-06-26T02:41:21;8.80;;;6.60;;
6828;SDS011;17930;48.592;8.868;2023-06-26T02:43:48;10.23;;;6.63;;
6828;SDS011;17930;48.592;8.868;2023-06-26T02:46:15;9.27;;;6.50;;
6828;SDS011;17930;48.592;8.868;2023-06-26T02:48:42;7.27;;;6.00;;
6828;SDS011;17930;48.592;8.868;2023-06-26T02:51:10;7.30;;;5.90;;
6828;SDS011;17930;48.592;8.868;2023-06-26T02:53:36;8.20;;;6.13;;
6828;SDS011;17930;48.592;8.868;2023-06-26T02:56:03;8.53;;;6.50;;
6828;SDS011;17930;48.592;8.868;2023-06-26T02:58:30;8.13;;;6.40;;
6828;SDS011;17930;48.592;8.868;2023-06-26T03:00:57;8.70;;;6.67;;
6828;SDS011;17930;48.592;8.868;2023-06-26T03:03:23;9.30;;;7.10;;
6828;SDS011;17930;48.592;8.868;2023-06-26T03:05:50;9.77;;;6.60;;
6828;SDS011;17930;48.592;8.868;2023-06-26T03:08:18;9.20;;;6.17;;
6828;SDS011;17930;48.592;8.868;2023-06-26T03:10:45;9.73;;;6.93;;
6828;SDS011;17930;48.592;8.868;2023-06-26T03:13:12;8.40;;;6.17;;
6828;SDS011;17930;48.592;8.868;2023-06-26T03:15:38;9.17;;;6.47;;
6828;SDS011;17930;48.592;8.868;2023-06-26T03:18:05;8.80;;;6.83;;
6828;SDS011;17930;48.592;8.868;2023-06-26T03:20:32;7.30;;;5.73;;
6828;SDS011;17930;48.592;8.868;2023-06-26T03:22:58;10.63;;;6.97;;
6828;SDS011;17930;48.592;8.868;2023-06-26T03:25:26;8.60;;;6.40;;
6828;SDS011;17930;48.592;8.868;2023-06-26T03:27:53;8.23;;;6.33;;
6828;SDS011;17930;48.592;8.868;2023-06-26T03:30:19;7.40;;;6.07;;
6828;SDS011;17930;48.592;8.868;2023-06-26T03:32:46;7.83;;;6.37;;
6828;SDS011;17930;48.592;8.868;2023-06-26T03:35:13;9.13;;;6.20;;
6828;SDS011;17930;48.592;8.868;2023-06-26T03:37:40;7.97;;;6.40;;
6828;SDS011;17930;48.592;8.868;2023-06-26T03:40:07;8.57;;;6.13;;
6828;SDS011;17930;48.592;8.868;2023-06-26T03:42:36;9.63;;;6.60;;
6828;SDS011;17930;48.592;8.868;2023-06-26T03:45:02;9.20;;;6.50;;
6828;SDS011;17930;48.592;8.868;2023-06-26T03:47:29;8.87;;;6.57;;
6828;SDS011;17930;48.592;8.868;2023-06-26T03:49:56;11.03;;;7.00;;
6828;SDS011;17930;48.592;8.868;2023-06-26T03:52:23;12.50;;;6.50;;
6828;SDS011;17930;48.592;8.868;2023-06-26T03:54:49;9.77;;;6.77;;
6828;SDS011;17930;48.592;8.868;2023-06-26T03:57:16;10.63;;;6.80;;
6828;SDS011;17930;48.592;8.868;2023-06-26T03:59:44;9.20;;;7.10;;
6828;SDS011;17930;48.592;8.868;2023-06-26T04:02:10;9.20;;;6.53;;
6828;SDS011;17930;48.592;8.868;2023-06-26T04:04:37;8.43;;;6.53;;
6828;SDS011;17930;48.592;8.868;2023-06-26T04:07:04;10.20;;;6.63;;
6828;SDS011;17930;48.592;8.868;2023-06-26T04:09:31;8.67;;;6.50;;
6828;SDS011;17930;48.592;8.868;2023-06-26T04:11:58;9.67;;;6.90;;
6828;SDS011;17930;48.592;8.868;2023-06-26T04:14:24;8.23;;;6.63;;
6828;SDS011;17930;48.592;8.868;2023-06-26T04:16:52;11.63;;;7.23;;
6828;SDS011;17930;48.592;8.868;2023-06-26T04:19:19;10.00;;;6.40;;
6828;SDS011;17930;48.592;8.868;2023-06-26T04:21:46;11.80;;;6.67;;
6828;SDS011;17930;48.592;8.868;2023-06-26T04:24:12;9.47;;;6.93;;
6828;SDS011;17930;48.592;8.868;2023-06-26T04:26:39;8.50;;;6.13;;
6828;SDS011;17930;48.592;8.868;2023-06-26T04:29:07;8.77;;;7.30;;
6828;SDS011;17930;48.592;8.868;2023-06-26T04:31:33;8.60;;;6.70;;
6828;SDS011;17930;48.592;8.868;2023-06-26T04:34:02;8.20;;;6.00;;
6828;SDS011;17930;48.592;8.868;2023-06-26T04:36:28;11.33;;;6.90;;
6828;SDS011;17930;48.592;8.868;2023-06-26T04:38:56;12.20;;;7.37;;
6828;SDS011;17930;48.592;8.868;2023-06-26T04:41:23;9.20;;;6.73;;
6828;SDS011;17930;48.592;8.868;2023-06-26T04:43:50;10.77;;;6.83;;
6828;SDS011;17930;48.592;8.868;2023-06-26T04:46:16;9.33;;;6.40;;
6828;SDS011;17930;48.592;8.868;2023-06-26T04:48:43;9.40;;;6.37;;
6828;SDS011;17930;48.592;8.868;2023-06-26T04:51:11;8.43;;;6.50;;
6828;SDS011;17930;48.592;8.868;2023-06-26T04:53:38;7.90;;;6.07;;
6828;SDS011;17930;48.592;8.868;2023-06-26T04:56:05;10.23;;;7.03;;
6828;SDS011;17930;48.592;8.868;2023-06-26T04:58:31;12.90;;;7.53;;
6828;SDS011;17930;48.592;8.868;2023-06-26T05:00:58;8.80;;;6.70;;
6828;SDS011;17930;48.592;8.868;2023-06-26T05:03:25;7.90;;;6.33;;
6828;SDS011;17930;48.592;8.868;2023-06-26T05:05:51;9.73;;;6.17;;
6828;SDS011;17930;48.592;8.868;2023-06-26T05:08:22;8.60;;;6.07;;
6828;SDS011;17930;48.592;8.868;2023-06-26T05:10:49;8.60;;;6.47;;
6828;SDS011;17930;48.592;8.868;2023-06-26T05:13:18;11.53;;;6.50;;
6828;SDS011;17930;48.592;8.868;2023-06-26T05:15:45;9.70;;;6.33;;
6828;SDS011;17930;48.592;8.868;2023-06-26T05:18:12;9.27;;;6.30;;
6828;SDS011;17930;48.592;8.868;2023-06-26T05:20:39;9.47;;;6.77;;
6828;SDS011;17930;48.592;8.868;2023-06-26T05:23:06;7.90;;;7.00;;
6828;SDS011;17930;48.592;8.868;2023-06-26T05:25:35;10.20;;;7.70;;
6828;SDS011;17930;48.592;8.868;2023-06-26T05:28:02;7.77;;;6.77;;
6828;SDS011;17930;48.592;8.868;2023-06-26T05:30:30;8.43;;;6.90;;
6828;SDS011;17930;48.592;8.868;2023-06-26T05:33:00;10.40;;;6.60;;
6828;SDS011;17930;48.592;8.868;2023-06-26T05:35:28;9.67;;;6.90;;
6828;SDS011;17930;48.592;8.868;2023-06-26T05:37:56;7.87;;;6.83;;
6828;SDS011;17930;48.592;8.868;2023-06-26T05:40:23;9.43;;;7.37;;
6828;SDS011;17930;48.592;8.868;2023-06-26T05:42:52;10.57;;;7.37;;
6828;SDS011;17930;48.592;8.868;2023-06-26T05:45:19;7.03;;;6.07;;
6828;SDS011;17930;48.592;8.868;2023-06-26T05:47:46;7.43;;;6.23;;
6828;SDS011;17930;48.592;8.868;2023-06-26T05:50:16;9.17;;;6.30;;
6828;SDS011;17930;48.592;8.868;2023-06-26T05:52:44;8.27;;;6.63;;
6828;SDS011;17930;48.592;8.868;2023-06-26T05:55:12;11.23;;;6.90;;
6828;SDS011;17930;48.592;8.868;2023-06-26T05:57:39;8.07;;;6.27;;
6828;SDS011;17930;48.592;8.868;2023-06-26T06:00:09;7.03;;;5.97;;
6828;SDS011;17930;48.592;8.868;2023-06-26T06:02:36;8.77;;;6.93;;
6828;SDS011;17930;48.592;8.868;2023-06-26T06:05:03;10.53;;;6.77;;
6828;SDS011;17930;48.592;8.868;2023-06-26T06:07:31;7.30;;;6.40;;
6828;SDS011;17930;48.592;8.868;2023-06-26T06:09:58;8.23;;;6.63;;
6828;SDS011;17930;48.592;8.868;2023-06-26T06:12:24;7.53;;;6.43;;
6828;SDS011;17930;48.592;8.868;2023-06-26T06:14:51;7.53;;;6.37;;
6828;SDS011;17930;48.592;8.868;2023-06-26T06:17:19;7.40;;;6.27;;
6828;SDS011;17930;48.592;8.868;2023-06-26T06:19:46;7.37;;;6.37;;
6828;SDS011;17930;48.592;8.868;2023-06-26T06:22:13;6.57;;;5.53;;
6828;SDS011;17930;48.592;8.868;2023-06-26T06:24:40;10.43;;;6.50;;
6828;SDS011;17930;48.592;8.868;2023-06-26T06:27:06;7.23;;;6.13;;
6828;SDS011;17930;48.592;8.868;2023-06-26T06:29:34;6.73;;;6.03;;
6828;SDS011;17930;48.592;8.868;2023-06-26T06:32:01;7.77;;;5.87;;
6828;SDS011;17930;48.592;8.868;2023-06-26T06:34:29;7.00;;;5.50;;
6828;SDS011;17930;48.592;8.868;2023-06-26T06:36:55;7.63;;;6.83;;
6828;SDS011;17930;48.592;8.868;2023-06-26T06:39:22;7.80;;;6.07;;
6828;SDS011;17930;48.592;8.868;2023-06-26T06:41:49;6.67;;;5.80;;
6828;SDS011;17930;48.592;8.868;2023-06-26T06:44:15;6.10;;;5.50;;
6828;SDS011;17930;48.592;8.868;2023-06-26T06:46:42;11.13;;;6.43;;
6828;SDS011;17930;48.592;8.868;2023-06-26T06:49:09;7.40;;;5.90;;
6828;SDS011;17930;48.592;8.868;2023-06-26T06:51:37;6.30;;;5.70;;
6828;SDS011;17930;48.592;8.868;2023-06-26T06:54:04;7.27;;;6.10;;
6828;SDS011;17930;48.592;8.868;2023-06-26T06:56:30;7.83;;;5.77;;
6828;SDS011;17930;48.592;8.868;2023-06-26T06:58:57;7.13;;;5.80;;
6828;SDS011;17930;48.592;8.868;2023-06-26T07:01:24;6.93;;;5.80;;
6828;SDS011;17930;48.592;8.868;2023-06-26T07:03:52;7.63;;;5.73;;
6828;SDS011;17930;48.592;8.868;2023-06-26T07:06:19;8.10;;;5.90;;
6828;SDS011;17930;48.592;8.868;2023-06-26T07:08:47;8.17;;;5.63;;
6828;SDS011;17930;48.592;8.868;2023-06-26T07:11:14;6.97;;;5.53;;
6828;SDS011;17930;48.592;8.868;2023-06-26T07:13:40;6.80;;;5.40;;
6828;SDS011;17930;48.592;8.868;2023-06-26T07:16:07;7.30;;;5.90;;
6828;SDS011;17930;48.592;8.868;2023-06-26T07:18:37;8.53;;;5.87;;
6828;SDS011;17930;48.592;8.868;2023-06-26T07:21:03;6.03;;;5.03;;
6828;SDS011;17930;48.592;8.868;2023-06-26T07:23:34;6.90;;;5.40;;
6828;SDS011;17930;48.592;8.868;2023-06-26T07:26:01;8.10;;;5.10;;
6828;SDS011;17930;48.592;8.868;2023-06-26T07:28:28;7.60;;;5.57;;
6828;SDS011;17930;48.592;8.868;2023-06-26T07:30:55;9.30;;;5.40;;
6828;SDS011;17930;48.592;8.868;2023-06-26T07:33:22;7.57;;;5.63;;
6828;SDS011;17930;48.592;8.868;2023-06-26T07:35:48;5.90;;;5.10;;
6828;SDS011;17930;48.592;8.868;2023-06-26T07:38:15;6.93;;;5.53;;
6828;SDS011;17930;48.592;8.868;2023-06-26T07:40:42;9.80;;;5.77;;
6828;SDS011;17930;48.592;8.868;2023-06-26T07:43:10;8.77;;;5.33;;
6828;SDS011;17930;48.592;8.868;2023-06-26T07:45:37;5.80;;;5.20;;
6828;SDS011;17930;48.592;8.868;2023-06-26T07:48:07;6.03;;;4.83;;
6828;SDS011;17930;48.592;8.868;2023-06-26T07:50:35;5.60;;;4.77;;
6828;SDS011;17930;48.592;8.868;2023-06-26T07:53:02;5.30;;;4.50;;
6828;SDS011;17930;48.592;8.868;2023-06-26T07:55:30;5.40;;;4.90;;
6828;SDS011;17930;48.592;8.868;2023-06-26T07:57:57;5.30;;;4.80;;
6828;SDS011;17930;48.592;8.868;2023-06-26T08:00:26;4.10;;;3.60;;
6828;SDS011;17930;48.592;8.868;2023-06-26T08:02:52;6.03;;;4.10;;
6828;SDS011;17930;48.592;8.868;2023-06-26T08:05:19;4.07;;;3.67;;
6828;SDS011;17930;48.592;8.868;2023-06-26T08:07:46;4.17;;;3.77;;
6828;SDS011;17930;48.592;8.868;2023-06-26T08:10:12;4.53;;;4.13;;
6828;SDS011;17930;48.592;8.868;2023-06-26T08:12:39;4.57;;;3.70;;
6828;SDS011;17930;48.592;8.868;2023-06-26T08:15:08;4.20;;;3.80;;
6828;SDS011;17930;48.592;8.868;2023-06-26T08:17:36;4.30;;;3.90;;
6828;SDS011;17930;48.592;8.868;2023-06-26T08:20:04;4.50;;;4.10;;
6828;SDS011;17930;48.592;8.868;2023-06-26T08:22:33;4.20;;;3.80;;
6828;SDS011;17930;48.592;8.868;2023-06-26T08:25:00;4.10;;;3.73;;
6828;SDS011;17930;48.592;8.868;2023-06-26T08:27:28;4.13;;;3.80;;
6828;SDS011;17930;48.592;8.868;2023-06-26T08:29:55;5.53;;;3.87;;
6828;SDS011;17930;48.592;8.868;2023-06-26T08:32:22;5.73;;;4.30;;
6828;SDS011;17930;48.592;8.868;2023-06-26T08:34:50;4.33;;;3.93;;
6828;SDS011;17930;48.592;8.868;2023-06-26T08:37:17;4.73;;;4.20;;
6828;SDS011;17930;48.592;8.868;2023-06-26T08:39:45;5.33;;;3.97;;
6828;SDS011;17930;48.592;8.868;2023-06-26T08:42:11;6.77;;;4.20;;
6828;SDS011;17930;48.592;8.868;2023-06-26T08:44:38;4.53;;;4.10;;
6828;SDS011;17930;48.592;8.868;2023-06-26T08:47:05;9.60;;;4.30;;
6828;SDS011;17930;48.592;8.868;2023-06-26T08:49:34;5.83;;;3.93;;
6828;SDS011;17930;48.592;8.868;2023-06-26T08:52:13;8.80;;;4.83;;
6828;SDS011;17930;48.592;8.868;2023-06-26T08:54:45;4.77;;;4.27;;
6828;SDS011;17930;48.592;8.868;2023-06-26T08:57:13;5.17;;;4.37;;
6828;SDS011;17930;48.592;8.868;2023-06-26T08:59:44;6.30;;;4.43;;
6828;SDS011;17930;48.592;8.868;2023-06-26T09:02:12;4.57;;;3.70;;
6828;SDS011;17930;48.592;8.868;2023-06-26T09:04:42;4.57;;;4.13;;
6828;SDS011;17930;48.592;8.868;2023-06-26T09:07:09;5.97;;;4.23;;
6828;SDS011;17930;48.592;8.868;2023-06-26T09:09:37;5.57;;;4.60;;
6828;SDS011;17930;48.592;8.868;2023-06-26T09:12:04;4.60;;;4.13;;
6828;SDS011;17930;48.592;8.868;2023-06-26T09:14:32;4.50;;;3.93;;
6828;SDS011;17930;48.592;8.868;2023-06-26T09:16:58;6.23;;;3.97;;
6828;SDS011;17930;48.592;8.868;2023-06-26T09:19:25;4.83;;;4.33;;
6828;SDS011;17930;48.592;8.868;2023-06-26T09:21:52;5.70;;;4.23;;
6828;SDS011;17930;48.592;8.868;2023-06-26T09:24:21;4.23;;;3.83;;
6828;SDS011;17930;48.592;8.868;2023-06-26T09:26:51;4.30;;;3.90;;
6828;SDS011;17930;48.592;8.868;2023-06-26T09:29:19;5.10;;;4.00;;
6828;SDS011;17930;48.592;8.868;2023-06-26T09:31:46;4.30;;;3.90;;
6828;SDS011;17930;48.592;8.868;2023-06-26T09:34:14;4.97;;;4.00;;
6828;SDS011;17930;48.592;8.868;2023-06-26T09:36:41;4.20;;;3.87;;
6828;SDS011;17930;48.592;8.868;2023-06-26T09:39:11;4.63;;;4.17;;
6828;SDS011;17930;48.592;8.868;2023-06-26T09:41:40;5.90;;;4.30;;
6828;SDS011;17930;48.592;8.868;2023-06-26T09:44:10;6.73;;;4.23;;
6828;SDS011;17930;48.592;8.868;2023-06-26T09:46:38;4.93;;;4.43;;
6828;SDS011;17930;48.592;8.868;2023-06-26T09:49:06;4.97;;;4.47;;
6828;SDS011;17930;48.592;8.868;2023-06-26T09:51:34;7.30;;;4.37;;
6828;SDS011;17930;48.592;8.868;2023-06-26T09:54:02;9.23;;;5.03;;
6828;SDS011;17930;48.592;8.868;2023-06-26T09:56:30;4.93;;;4.50;;
6828;SDS011;17930;48.592;8.868;2023-06-26T09:58:58;5.30;;;4.33;;
6828;SDS011;17930;48.592;8.868;2023-06-26T10:01:27;5.10;;;4.60;;
6828;SDS011;17930;48.592;8.868;2023-06-26T10:03:54;4.63;;;4.23;;
6828;SDS011;17930;48.592;8.868;2023-06-26T10:06:27;5.17;;;4.67;;
6828;SDS011;17930;48.592;8.868;2023-06-26T10:08:58;5.13;;;4.63;;
6828;SDS011;17930;48.592;8.868;2023-06-26T10:11:29;5.40;;;4.33;;
6828;SDS011;17930;48.592;8.868;2023-06-26T10:14:03;4.90;;;4.00;;
6828;SDS011;17930;48.592;8.868;2023-06-26T10:16:35;8.07;;;4.57;;
6828;SDS011;17930;48.592;8.868;2023-06-26T10:19:06;4.93;;;4.43;;
6828;SDS011;17930;48.592;8.868;2023-06-26T10:21:36;5.30;;;4.80;;
6828;SDS011;17930;48.592;8.868;2023-06-26T10:24:05;5.13;;;4.63;;
6828;SDS011;17930;48.592;8.868;2023-06-26T10:26:33;5.00;;;4.50;;
6828;SDS011;17930;48.592;8.868;2023-06-26T10:29:04;5.07;;;4.57;;
6828;SDS011;17930;48.592;8.868;2023-06-26T10:31:34;5.00;;;4.40;;
6828;SDS011;17930;48.592;8.868;2023-06-26T10:34:02;5.07;;;4.57;;
6828;SDS011;17930;48.592;8.868;2023-06-26T10:36:29;5.83;;;5.30;;
6828;SDS011;17930;48.592;8.868;2023-06-26T10:38:58;5.30;;;4.80;;
6828;SDS011;17930;48.592;8.868;2023-06-26T10:41:28;5.47;;;4.90;;
6828;SDS011;17930;48.592;8.868;2023-06-26T10:44:06;7.23;;;4.70;;
6828;SDS011;17930;48.592;8.868;2023-06-26T10:46:40;6.33;;;5.10;;
6828;SDS011;17930;48.592;8.868;2023-06-26T10:49:16;7.60;;;5.27;;
6828;SDS011;17930;48.592;8.868;2023-06-26T10:51:45;5.27;;;4.77;;
6828;SDS011;17930;48.592;8.868;2023-06-26T10:54:14;5.73;;;4.97;;
6828;SDS011;17930;48.592;8.868;2023-06-26T10:56:42;8.87;;;4.80;;
6828;SDS011;17930;48.592;8.868;2023-06-26T10:59:13;5.10;;;4.60;;
6828;SDS011;17930;48.592;8.868;2023-06-26T11:01:44;5.83;;;5.33;;
6828;SDS011;17930;48.592;8.868;2023-06-26T11:04:12;7.20;;;5.67;;
6828;SDS011;17930;48.592;8.868;2023-06-26T11:06:41;6.93;;;4.70;;
6828;SDS011;17930;48.592;8.868;2023-06-26T11:09:14;5.67;;;4.67;;
6828;SDS011;17930;48.592;8.868;2023-06-26T11:11:56;5.37;;;4.87;;
6828;SDS011;17930;48.592;8.868;2023-06-26T11:14:27;5.23;;;4.73;;
6828;SDS011;17930;48.592;8.868;2023-06-26T11:16:56;5.77;;;5.27;;
6828;SDS011;17930;48.592;8.868;2023-06-26T11:19:24;6.63;;;4.87;;
6828;SDS011;17930;48.592;8.868;2023-06-26T11:21:52;6.47;;;5.50;;
6828;SDS011;17930;48.592;8.868;2023-06-26T11:24:24;5.80;;;5.20;;
6828;SDS011;17930;48.592;8.868;2023-06-26T11:26:51;6.50;;;4.90;;
6828;SDS011;17930;48.592;8.868;2023-06-26T11:29:18;5.37;;;4.87;;
6828;SDS011;17930;48.592;8.868;2023-06-26T11:31:45;5.83;;;5.33;;
6828;SDS011;17930;48.592;8.868;2023-06-26T11:34:13;7.67;;;5.70;;
6828;SDS011;17930;48.592;8.868;2023-06-26T11:36:41;5.03;;;4.63;;
6828;SDS011;17930;48.592;8.868;2023-06-26T11:39:11;6.03;;;5.10;;
6828;SDS011;17930;48.592;8.868;2023-06-26T11:41:39;5.97;;;5.27;;
6828;SDS011;17930;48.592;8.868;2023-06-26T11:44:07;5.70;;;5.17;;
6828;SDS011;17930;48.592;8.868;2023-06-26T11:46:34;6.03;;;5.03;;
6828;SDS011;17930;48.592;8.868;2023-06-26T11:49:02;5.27;;;4.27;;
6828;SDS011;17930;48.592;8.868;2023-06-26T11:51:30;5.57;;;5.07;;
6828;SDS011;17930;48.592;8.868;2023-06-26T11:54:00;7.37;;;5.03;;
6828;SDS011;17930;48.592;8.868;2023-06-26T11:56:28;6.47;;;5.00;;
6828;SDS011;17930;48.592;8.868;2023-06-26T11:58:55;6.30;;;5.20;;
6828;SDS011;17930;48.592;8.868;2023-06-26T12:01:22;8.20;;;5.20;;
6828;SDS011;17930;48.592;8.868;2023-06-26T12:03:50;7.00;;;5.17;;
6828;SDS011;17930;48.592;8.868;2023-06-26T12:06:17;5.60;;;4.63;;
6828;SDS011;17930;48.592;8.868;2023-06-26T12:08:45;6.23;;;5.33;;
6828;SDS011;17930;48.592;8.868;2023-06-26T12:11:12;6.17;;;5.03;;
6828;SDS011;17930;48.592;8.868;2023-06-26T12:13:40;6.83;;;5.50;;
6828;SDS011;17930;48.592;8.868;2023-06-26T12:16:06;10.07;;;5.17;;
6828;SDS011;17930;48.592;8.868;2023-06-26T12:18:34;6.70;;;4.97;;
6828;SDS011;17930;48.592;8.868;2023-06-26T12:21:00;6.37;;;4.77;;
6828;SDS011;17930;48.592;8.868;2023-06-26T12:23:31;6.57;;;5.40;;
6828;SDS011;17930;48.592;8.868;2023-06-26T12:26:15;6.47;;;4.63;;
6828;SDS011;17930;48.592;8.868;2023-06-26T12:28:44;5.60;;;5.10;;
6828;SDS011;17930;48.592;8.868;2023-06-26T12:31:14;7.33;;;5.10;;
6828;SDS011;17930;48.592;8.868;2023-06-26T12:33:42;5.47;;;4.60;;
6828;SDS011;17930;48.592;8.868;2023-06-26T12:36:12;6.63;;;5.27;;
6828;SDS011;17930;48.592;8.868;2023-06-26T12:38:39;5.77;;;4.57;;
6828;SDS011;17930;48.592;8.868;2023-06-26T12:41:12;6.13;;;4.93;;
6828;SDS011;17930;48.592;8.868;2023-06-26T12:43:40;5.00;;;4.60;;
6828;SDS011;17930;48.592;8.868;2023-06-26T12:46:07;5.40;;;4.90;;
6828;SDS011;17930;48.592;8.868;2023-06-26T12:48:37;7.77;;;5.20;;
6828;SDS011;17930;48.592;8.868;2023-06-26T12:51:09;6.90;;;5.27;;
6828;SDS011;17930;48.592;8.868;2023-06-26T12:53:36;9.00;;;5.20;;
6828;SDS011;17930;48.592;8.868;2023-06-26T12:56:04;6.13;;;5.50;;
6828;SDS011;17930;48.592;8.868;2023-06-26T12:58:33;6.60;;;4.83;;
6828;SDS011;17930;48.592;8.868;2023-06-26T13:00:59;5.83;;;5.17;;
6828;SDS011;17930;48.592;8.868;2023-06-26T13:03:28;7.10;;;5.53;;
6828;SDS011;17930;48.592;8.868;2023-06-26T13:05:55;5.50;;;5.00;;
6828;SDS011;17930;48.592;8.868;2023-06-26T13:08:21;5.63;;;4.87;;
6828;SDS011;17930;48.592;8.868;2023-06-26T13:10:48;5.33;;;4.70;;
6828;SDS011;17930;48.592;8.868;2023-06-26T13:13:15;6.43;;;5.07;;
6828;SDS011;17930;48.592;8.868;2023-06-26T13:15:44;7.37;;;4.83;;
6828;SDS011;17930;48.592;8.868;2023-06-26T13:18:10;5.83;;;4.83;;
6828;SDS011;17930;48.592;8.868;2023-06-26T13:20:37;6.80;;;4.97;;
6828;SDS011;17930;48.592;8.868;2023-06-26T13:23:04;6.27;;;5.10;;
6828;SDS011;17930;48.592;8.868;2023-06-26T13:25:30;5.10;;;4.60;;
6828;SDS011;17930;48.592;8.868;2023-06-26T13:27:57;5.30;;;4.77;;
6828;SDS011;17930;48.592;8.868;2023-06-26T13:30:24;8.47;;;6.40;;
6828;SDS011;17930;48.592;8.868;2023-06-26T13:32:52;6.20;;;5.60;;
6828;SDS011;17930;48.592;8.868;2023-06-26T13:35:19;5.10;;;4.43;;
6828;SDS011;17930;48.592;8.868;2023-06-26T13:37:45;7.63;;;4.83;;
6828;SDS011;17930;48.592;8.868;2023-06-26T13:40:12;6.30;;;4.73;;
6828;SDS011;17930;48.592;8.868;2023-06-26T13:42:39;6.17;;;4.60;;
6828;SDS011;17930;48.592;8.868;2023-06-26T13:45:06;5.83;;;4.77;;
6828;SDS011;17930;48.592;8.868;2023-06-26T13:47:34;5.87;;;4.80;;
6828;SDS011;17930;48.592;8.868;2023-06-26T13:50:04;6.20;;;4.47;;
6828;SDS011;17930;48.592;8.868;2023-06-26T13:52:32;5.93;;;4.40;;
6828;SDS011;17930;48.592;8.868;2023-06-26T13:54:59;4.73;;;3.97;;
6828;SDS011;17930;48.592;8.868;2023-06-26T13:57:25;6.87;;;4.80;;
6828;SDS011;17930;48.592;8.868;2023-06-26T13:59:52;7.67;;;4.77;;
6828;SDS011;17930;48.592;8.868;2023-06-26T14:02:19;5.10;;;4.60;;
6828;SDS011;17930;48.592;8.868;2023-06-26T14:04:46;8.47;;;4.23;;
6828;SDS011;17930;48.592;8.868;2023-06-26T14:07:14;11.50;;;4.97;;
6828;SDS011;17930;48.592;8.868;2023-06-26T14:09:40;5.37;;;4.20;;
6828;SDS011;17930;48.592;8.868;2023-06-26T14:12:07;8.43;;;4.23;;
6828;SDS011;17930;48.592;8.868;2023-06-26T14:14:34;5.40;;;4.27;;
6828;SDS011;17930;48.592;8.868;2023-06-26T14:17:01;5.87;;;4.50;;
6828;SDS011;17930;48.592;8.868;2023-06-26T14:19:28;4.63;;;3.73;;
6828;SDS011;17930;48.592;8.868;2023-06-26T14:21:55;5.53;;;4.13;;
6828;SDS011;17930;48.592;8.868;2023-06-26T14:24:23;4.97;;;3.97;;
6828;SDS011;17930;48.592;8.868;2023-06-26T14:26:50;5.50;;;4.03;;
6828;SDS011;17930;48.592;8.868;2023-06-26T14:29:16;4.20;;;3.27;;
6828;SDS011;17930;48.592;8.868;2023-06-26T14:31:45;4.93;;;3.50;;
6828;SDS011;17930;48.592;8.868;2023-06-26T14:34:12;6.17;;;3.73;;
6828;SDS011;17930;48.592;8.868;2023-06-26T14:36:38;5.67;;;3.23;;
6828;SDS011;17930;48.592;8.868;2023-06-26T14:39:05;4.90;;;3.57;;
6828;SDS011;17930;48.592;8.868;2023-06-26T14:41:33;3.70;;;3.23;;
6828;SDS011;17930;48.592;8.868;2023-06-26T14:43:59;16.37;;;3.77;;
6828;SDS011;17930;48.592;8.868;2023-06-26T14:46:26;5.93;;;3.27;;
6828;SDS011;17930;48.592;8.868;2023-06-26T14:48:53;3.77;;;3.37;;
6828;SDS011;17930;48.592;8.868;2023-06-26T14:51:20;4.90;;;3.50;;
6828;SDS011;17930;48.592;8.868;2023-06-26T14:53:47;6.17;;;3.10;;
6828;SDS011;17930;48.592;8.868;2023-06-26T14:56:14;4.53;;;3.13;;
6828;SDS011;17930;48.592;8.868;2023-06-26T14:58:42;4.53;;;3.33;;
6828;SDS011;17930;48.592;8.868;2023-06-26T15:01:09;5.73;;;3.13;;
6828;SDS011;17930;48.592;8.868;2023-06-26T15:03:36;5.30;;;2.90;;